Meadow Creek, North Carolina
Current Conditions -  °F | °C
As of 12:35 PM on Friday 21 Nov 2014 (Local Time) from KTNB Reporting Station
Clear Clear  
Wind Chill: 32°   Ceiling: Unl
Heat Index: 38°   Visibility: 10mi
Dew Point:   Wind: 9mph
Humidity: 22%   Direction: 280°W
Pressure: 30.34"   Gusts: NA
Location:  36.1935°N, 81.5276°W
Report Text: KTNB 211735Z AUTO 28008KT 250V310 10SM CLR 04/M16 A3034 RMK AO2 T00351165
Loading
Personal Weather Stations






























Interactive Weather Map New forecast layout! Learn more

10-Day Weather Forecast

Advertisements
Track Severe Weather on mobile